sensor_id;sensor_type;location;lat;lon;timestamp;temperature;humidity
9828;DHT22;4953;48.952;9.442;2023-01-16T05:00:55;3.50;99.90
9828;DHT22;4953;48.952;9.442;2023-01-16T05:03:22;3.40;99.90
9828;DHT22;4953;48.952;9.442;2023-01-16T05:05:49;3.40;99.90
9828;DHT22;4953;48.952;9.442;2023-01-16T05:08:15;3.40;99.90
9828;DHT22;4953;48.952;9.442;2023-01-16T05:10:42;3.40;99.90
9828;DHT22;4953;48.952;9.442;2023-01-16T05:13:09;3.40;99.90
9828;DHT22;4953;48.952;9.442;2023-01-16T05:15:36;3.40;99.90
9828;DHT22;4953;48.952;9.442;2023-01-16T05:18:04;3.40;99.90
9828;DHT22;4953;48.952;9.442;2023-01-16T05:20:31;3.40;99.90
9828;DHT22;4953;48.952;9.442;2023-01-16T05:22:58;3.40;99.90
9828;DHT22;4953;48.952;9.442;2023-01-16T05:25:24;3.40;99.90
9828;DHT22;4953;48.952;9.442;2023-01-16T05:27:51;3.30;99.90
9828;DHT22;4953;48.952;9.442;2023-01-16T05:30:18;3.30;99.90
9828;DHT22;4953;48.952;9.442;2023-01-16T05:32:45;3.30;99.90
9828;DHT22;4953;48.952;9.442;2023-01-16T05:35:14;3.30;99.90
9828;DHT22;4953;48.952;9.442;2023-01-16T05:37:42;3.30;99.90
9828;DHT22;4953;48.952;9.442;2023-01-16T05:40:10;3.30;99.90
9828;DHT22;4953;48.952;9.442;2023-01-16T05:42:37;3.30;99.90
9828;DHT22;4953;48.952;9.442;2023-01-16T05:45:04;3.30;99.90
9828;DHT22;4953;48.952;9.442;2023-01-16T05:47:33;3.30;99.90
9828;DHT22;4953;48.952;9.442;2023-01-16T05:50:00;3.30;99.90
9828;DHT22;4953;48.952;9.442;2023-01-16T05:52:28;3.30;99.90
9828;DHT22;4953;48.952;9.442;2023-01-16T05:54:56;3.20;99.90
9828;DHT22;4953;48.952;9.442;2023-01-16T05:57:23;3.20;99.90
9828;DHT22;4953;48.952;9.442;2023-01-16T05:59:51;3.20;99.90
9828;DHT22;4953;48.952;9.442;2023-01-16T06:02:18;3.20;99.90
9828;DHT22;4953;48.952;9.442;2023-01-16T06:04:45;3.20;99.90
9828;DHT22;4953;48.952;9.442;2023-01-16T06:07:13;3.20;99.90
9828;DHT22;4953;48.952;9.442;2023-01-16T06:09:41;3.20;99.90
9828;DHT22;4953;48.952;9.442;2023-01-16T06:12:13;3.20;99.90
9828;DHT22;4953;48.952;9.442;2023-01-16T06:14:40;3.20;99.90
9828;DHT22;4953;48.952;9.442;2023-01-16T06:17:07;3.20;99.90
9828;DHT22;4953;48.952;9.442;2023-01-16T06:19:34;3.20;99.90
9828;DHT22;4953;48.952;9.442;2023-01-16T06:22:01;3.20;99.90
9828;DHT22;4953;48.952;9.442;2023-01-16T06:24:28;3.20;99.90
9828;DHT22;4953;48.952;9.442;2023-01-16T06:26:56;3.20;99.90
9828;DHT22;4953;48.952;9.442;2023-01-16T06:29:22;3.20;99.90
9828;DHT22;4953;48.952;9.442;2023-01-16T06:31:49;3.10;99.90
9828;DHT22;4953;48.952;9.442;2023-01-16T06:34:17;3.10;99.90
9828;DHT22;4953;48.952;9.442;2023-01-16T06:36:43;3.10;99.90
9828;DHT22;4953;48.952;9.442;2023-01-16T06:39:13;3.10;99.90
9828;DHT22;4953;48.952;9.442;2023-01-16T06:41:40;3.10;99.90
9828;DHT22;4953;48.952;9.442;2023-01-16T06:44:09;3.10;99.90
9828;DHT22;4953;48.952;9.442;2023-01-16T06:46:36;3.00;99.90
9828;DHT22;4953;48.952;9.442;2023-01-16T06:49:03;3.00;99.90
9828;DHT22;4953;48.952;9.442;2023-01-16T06:51:29;3.00;99.90
9828;DHT22;4953;48.952;9.442;2023-01-16T06:53:56;3.00;99.90
9828;DHT22;4953;48.952;9.442;2023-01-16T06:56:23;3.00;99.90
9828;DHT22;4953;48.952;9.442;2023-01-16T06:58:50;3.00;99.90
9828;DHT22;4953;48.952;9.442;2023-01-16T07:01:18;3.10;99.90
9828;DHT22;4953;48.952;9.442;2023-01-16T07:03:45;3.10;99.90
9828;DHT22;4953;48.952;9.442;2023-01-16T07:06:12;3.20;99.90
9828;DHT22;4953;48.952;9.442;2023-01-16T07:08:39;3.20;99.90
9828;DHT22;4953;48.952;9.442;2023-01-16T07:11:06;3.20;99.90
9828;DHT22;4953;48.952;9.442;2023-01-16T07:13:32;3.20;99.90
9828;DHT22;4953;48.952;9.442;2023-01-16T07:15:59;3.20;99.90
9828;DHT22;4953;48.952;9.442;2023-01-16T07:18:45;3.30;99.90
9828;DHT22;4953;48.952;9.442;2023-01-16T07:21:28;3.30;99.90
9828;DHT22;4953;48.952;9.442;2023-01-16T07:24:16;3.30;99.90
9828;DHT22;4953;48.952;9.442;2023-01-16T07:26:48;3.30;99.90
9828;DHT22;4953;48.952;9.442;2023-01-16T07:29:17;3.30;99.90
9828;DHT22;4953;48.952;9.442;2023-01-16T07:31:44;3.40;99.90
9828;DHT22;4953;48.952;9.442;2023-01-16T07:34:13;3.40;99.90
9828;DHT22;4953;48.952;9.442;2023-01-16T07:36:39;3.40;99.90
9828;DHT22;4953;48.952;9.442;2023-01-16T07:39:06;3.40;99.90
9828;DHT22;4953;48.952;9.442;2023-01-16T07:41:33;3.40;99.90
9828;DHT22;4953;48.952;9.442;2023-01-16T07:44:00;3.50;99.90
9828;DHT22;4953;48.952;9.442;2023-01-16T07:46:26;3.50;99.90
9828;DHT22;4953;48.952;9.442;2023-01-16T07:48:53;3.50;99.90
9828;DHT22;4953;48.952;9.442;2023-01-16T07:51:23;3.60;99.90
9828;DHT22;4953;48.952;9.442;2023-01-16T07:53:50;3.60;99.90
9828;DHT22;4953;48.952;9.442;2023-01-16T07:56:17;3.60;99.90
9828;DHT22;4953;48.952;9.442;2023-01-16T07:58:44;3.60;99.90
9828;DHT22;4953;48.952;9.442;2023-01-16T08:01:11;3.60;99.90
9828;DHT22;4953;48.952;9.442;2023-01-16T08:03:38;3.70;99.90
9828;DHT22;4953;48.952;9.442;2023-01-16T08:06:06;3.70;99.90
9828;DHT22;4953;48.952;9.442;2023-01-16T08:08:35;3.70;99.90
9828;DHT22;4953;48.952;9.442;2023-01-16T08:11:01;3.80;99.90
9828;DHT22;4953;48.952;9.442;2023-01-16T08:13:50;3.80;99.90
9828;DHT22;4953;48.952;9.442;2023-01-16T08:16:17;3.80;99.90
9828;DHT22;4953;48.952;9.442;2023-01-16T08:18:44;3.80;99.90
9828;DHT22;4953;48.952;9.442;2023-01-16T08:21:14;3.80;99.90
9828;DHT22;4953;48.952;9.442;2023-01-16T08:23:42;3.90;99.90
9828;DHT22;4953;48.952;9.442;2023-01-16T08:26:10;3.90;99.90
9828;DHT22;4953;48.952;9.442;2023-01-16T08:28:37;3.90;99.90
9828;DHT22;4953;48.952;9.442;2023-01-16T08:31:04;3.90;99.90
9828;DHT22;4953;48.952;9.442;2023-01-16T08:33:34;3.90;99.90
9828;DHT22;4953;48.952;9.442;2023-01-16T08:36:01;3.90;99.90
9828;DHT22;4953;48.952;9.442;2023-01-16T08:38:28;4.00;99.90
9828;DHT22;4953;48.952;9.442;2023-01-16T08:40:56;4.10;99.90
9828;DHT22;4953;48.952;9.442;2023-01-16T08:43:25;4.10;99.90
9828;DHT22;4953;48.952;9.442;2023-01-16T08:46:17;4.10;99.90
9828;DHT22;4953;48.952;9.442;2023-01-16T08:49:02;4.10;99.90
9828;DHT22;4953;48.952;9.442;2023-01-16T08:51:47;4.10;99.90
9828;DHT22;4953;48.952;9.442;2023-01-16T08:54:14;4.10;99.90
9828;DHT22;4953;48.952;9.442;2023-01-16T08:56:42;4.10;99.90
9828;DHT22;4953;48.952;9.442;2023-01-16T08:59:09;4.20;99.90
9828;DHT22;4953;48.952;9.442;2023-01-16T09:01:36;4.20;99.90
9828;DHT22;4953;48.952;9.442;2023-01-16T09:04:03;4.20;99.90
9828;DHT22;4953;48.952;9.442;2023-01-16T09:06:29;4.20;99.90
9828;DHT22;4953;48.952;9.442;2023-01-16T09:08:56;4.20;99.90
9828;DHT22;4953;48.952;9.442;2023-01-16T09:11:23;4.30;99.90
9828;DHT22;4953;48.952;9.442;2023-01-16T09:14:08;4.30;99.90
9828;DHT22;4953;48.952;9.442;2023-01-16T09:16:35;4.40;99.90
9828;DHT22;4953;48.952;9.442;2023-01-16T09:19:02;4.40;99.90
9828;DHT22;4953;48.952;9.442;2023-01-16T09:21:29;4.40;99.90
9828;DHT22;4953;48.952;9.442;2023-01-16T09:23:56;4.50;99.90
9828;DHT22;4953;48.952;9.442;2023-01-16T09:26:23;4.50;99.90
9828;DHT22;4953;48.952;9.442;2023-01-16T09:28:50;4.50;99.90
9828;DHT22;4953;48.952;9.442;2023-01-16T09:31:18;4.60;99.90
9828;DHT22;4953;48.952;9.442;2023-01-16T09:33:45;4.60;99.90
9828;DHT22;4953;48.952;9.442;2023-01-16T09:36:12;4.60;99.90
9828;DHT22;4953;48.952;9.442;2023-01-16T09:38:39;4.70;99.90
9828;DHT22;4953;48.952;9.442;2023-01-16T09:41:12;4.70;99.90
9828;DHT22;4953;48.952;9.442;2023-01-16T09:44:02;4.70;99.90
9828;DHT22;4953;48.952;9.442;2023-01-16T09:46:35;4.80;99.90
9828;DHT22;4953;48.952;9.442;2023-01-16T09:49:05;4.80;99.90
9828;DHT22;4953;48.952;9.442;2023-01-16T09:51:37;4.80;99.90
9828;DHT22;4953;48.952;9.442;2023-01-16T09:54:10;4.80;99.90
9828;DHT22;4953;48.952;9.442;2023-01-16T09:56:57;4.80;99.90
9828;DHT22;4953;48.952;9.442;2023-01-16T09:59:45;4.80;99.90
9828;DHT22;4953;48.952;9.442;2023-01-16T10:02:20;4.80;99.90
9828;DHT22;4953;48.952;9.442;2023-01-16T10:04:48;5.00;99.90
9828;DHT22;4953;48.952;9.442;2023-01-16T10:07:29;5.00;99.90
9828;DHT22;4953;48.952;9.442;2023-01-16T10:10:03;5.00;99.90
9828;DHT22;4953;48.952;9.442;2023-01-16T10:12:34;5.00;99.90
9828;DHT22;4953;48.952;9.442;2023-01-16T10:15:11;5.10;99.90
9828;DHT22;4953;48.952;9.442;2023-01-16T10:17:49;5.10;99.90
9828;DHT22;4953;48.952;9.442;2023-01-16T10:20:31;5.20;99.90
9828;DHT22;4953;48.952;9.442;2023-01-16T10:23:11;5.30;99.90
9828;DHT22;4953;48.952;9.442;2023-01-16T10:25:43;5.30;99.90
9828;DHT22;4953;48.952;9.442;2023-01-16T10:28:25;5.30;99.90
9828;DHT22;4953;48.952;9.442;2023-01-16T10:30:58;5.40;99.90
9828;DHT22;4953;48.952;9.442;2023-01-16T10:33:32;5.40;99.90
9828;DHT22;4953;48.952;9.442;2023-01-16T10:36:02;5.50;99.90
9828;DHT22;4953;48.952;9.442;2023-01-16T10:38:34;5.40;99.90
9828;DHT22;4953;48.952;9.442;2023-01-16T10:41:13;5.40;99.90
9828;DHT22;4953;48.952;9.442;2023-01-16T10:43:55;5.40;99.90
9828;DHT22;4953;48.952;9.442;2023-01-16T10:46:41;5.40;99.90
9828;DHT22;4953;48.952;9.442;2023-01-16T10:49:27;5.50;99.90
9828;DHT22;4953;48.952;9.442;2023-01-16T10:51:54;5.50;99.90
9828;DHT22;4953;48.952;9.442;2023-01-16T10:54:23;5.40;99.90
9828;DHT22;4953;48.952;9.442;2023-01-16T10:56:50;5.50;99.90
9828;DHT22;4953;48.952;9.442;2023-01-16T10:59:18;5.50;99.90
9828;DHT22;4953;48.952;9.442;2023-01-16T11:01:47;5.50;99.90
9828;DHT22;4953;48.952;9.442;2023-01-16T11:04:18;5.50;99.90
9828;DHT22;4953;48.952;9.442;2023-01-16T11:06:46;5.60;99.90
9828;DHT22;4953;48.952;9.442;2023-01-16T11:09:18;5.60;99.90
9828;DHT22;4953;48.952;9.442;2023-01-16T11:11:47;5.60;99.90
9828;DHT22;4953;48.952;9.442;2023-01-16T11:14:35;5.60;99.90
9828;DHT22;4953;48.952;9.442;2023-01-16T11:17:25;5.60;99.90
9828;DHT22;4953;48.952;9.442;2023-01-16T11:20:14;5.70;99.90
9828;DHT22;4953;48.952;9.442;2023-01-16T11:22:45;5.70;99.90
9828;DHT22;4953;48.952;9.442;2023-01-16T11:25:16;5.70;99.90
9828;DHT22;4953;48.952;9.442;2023-01-16T11:27:46;5.80;99.90
9828;DHT22;4953;48.952;9.442;2023-01-16T11:30:18;5.80;99.90
9828;DHT22;4953;48.952;9.442;2023-01-16T11:32:47;5.80;99.90
9828;DHT22;4953;48.952;9.442;2023-01-16T11:35:16;5.90;99.90
9828;DHT22;4953;48.952;9.442;2023-01-16T11:37:48;5.90;99.90
9828;DHT22;4953;48.952;9.442;2023-01-16T11:40:20;6.00;99.90
9828;DHT22;4953;48.952;9.442;2023-01-16T11:42:55;6.10;99.90
9828;DHT22;4953;48.952;9.442;2023-01-16T11:45:40;6.10;99.90
9828;DHT22;4953;48.952;9.442;2023-01-16T11:48:22;6.10;99.90
9828;DHT22;4953;48.952;9.442;2023-01-16T11:50:52;6.00;99.90
9828;DHT22;4953;48.952;9.442;2023-01-16T11:53:21;6.00;99.90
9828;DHT22;4953;48.952;9.442;2023-01-16T11:56:05;6.00;99.90
9828;DHT22;4953;48.952;9.442;2023-01-16T11:58:45;6.10;99.90
9828;DHT22;4953;48.952;9.442;2023-01-16T12:01:15;6.10;99.90
9828;DHT22;4953;48.952;9.442;2023-01-16T12:04:00;6.10;99.90
9828;DHT22;4953;48.952;9.442;2023-01-16T12:06:38;6.20;99.90
9828;DHT22;4953;48.952;9.442;2023-01-16T12:09:22;6.20;99.90
9828;DHT22;4953;48.952;9.442;2023-01-16T12:12:10;6.20;99.90
9828;DHT22;4953;48.952;9.442;2023-01-16T12:14:58;6.10;99.90
9828;DHT22;4953;48.952;9.442;2023-01-16T12:17:35;6.10;99.90
9828;DHT22;4953;48.952;9.442;2023-01-16T12:20:27;6.10;99.90
9828;DHT22;4953;48.952;9.442;2023-01-16T12:23:08;6.20;99.90
9828;DHT22;4953;48.952;9.442;2023-01-16T12:25:45;6.20;99.90
9828;DHT22;4953;48.952;9.442;2023-01-16T12:28:27;6.30;99.90
9828;DHT22;4953;48.952;9.442;2023-01-16T12:31:06;6.30;99.90
9828;DHT22;4953;48.952;9.442;2023-01-16T12:33:51;6.30;99.90
9828;DHT22;4953;48.952;9.442;2023-01-16T12:36:28;6.40;99.90
9828;DHT22;4953;48.952;9.442;2023-01-16T12:39:04;6.40;99.90
9828;DHT22;4953;48.952;9.442;2023-01-16T12:41:43;6.40;99.90
9828;DHT22;4953;48.952;9.442;2023-01-16T12:44:40;6.40;99.90
9828;DHT22;4953;48.952;9.442;2023-01-16T12:50:07;6.50;99.90
9828;DHT22;4953;48.952;9.442;2023-01-16T12:52:53;6.50;99.90
9828;DHT22;4953;48.952;9.442;2023-01-16T12:55:34;6.50;99.90
9828;DHT22;4953;48.952;9.442;2023-01-16T12:58:10;6.60;99.90
9828;DHT22;4953;48.952;9.442;2023-01-16T13:00:40;6.60;99.90
9828;DHT22;4953;48.952;9.442;2023-01-16T13:03:15;6.60;99.90
9828;DHT22;4953;48.952;9.442;2023-01-16T13:05:44;6.70;99.90
9828;DHT22;4953;48.952;9.442;2023-01-16T13:08:17;6.70;99.90
9828;DHT22;4953;48.952;9.442;2023-01-16T13:10:49;6.80;99.90
9828;DHT22;4953;48.952;9.442;2023-01-16T13:13:40;6.80;99.90
9828;DHT22;4953;48.952;9.442;2023-01-16T13:16:12;6.80;99.90
9828;DHT22;4953;48.952;9.442;2023-01-16T13:18:43;6.80;99.90
9828;DHT22;4953;48.952;9.442;2023-01-16T13:21:15;6.90;99.90
9828;DHT22;4953;48.952;9.442;2023-01-16T13:23:46;6.90;99.90
9828;DHT22;4953;48.952;9.442;2023-01-16T13:26:15;7.00;99.90
9828;DHT22;4953;48.952;9.442;2023-01-16T13:28:50;7.00;99.90
9828;DHT22;4953;48.952;9.442;2023-01-16T13:31:25;7.00;99.90
9828;DHT22;4953;48.952;9.442;2023-01-16T13:33:56;7.00;99.90
9828;DHT22;4953;48.952;9.442;2023-01-16T13:36:52;7.00;99.90
9828;DHT22;4953;48.952;9.442;2023-01-16T13:39:55;7.10;99.90
9828;DHT22;4953;48.952;9.442;2023-01-16T13:42:25;7.10;99.90
9828;DHT22;4953;48.952;9.442;2023-01-16T13:44:58;7.00;99.90
9828;DHT22;4953;48.952;9.442;2023-01-16T13:47:44;7.10;99.90
9828;DHT22;4953;48.952;9.442;2023-01-16T13:50:20;7.10;99.90
9828;DHT22;4953;48.952;9.442;2023-01-16T13:52:48;7.20;99.90
9828;DHT22;4953;48.952;9.442;2023-01-16T13:55:24;7.20;99.90
9828;DHT22;4953;48.952;9.442;2023-01-16T13:57:55;7.20;99.90
9828;DHT22;4953;48.952;9.442;2023-01-16T14:00:24;7.30;99.90
9828;DHT22;4953;48.952;9.442;2023-01-16T14:03:10;7.40;99.90
9828;DHT22;4953;48.952;9.442;2023-01-16T14:05:45;7.50;99.90
9828;DHT22;4953;48.952;9.442;2023-01-16T14:08:46;7.50;99.90
9828;DHT22;4953;48.952;9.442;2023-01-16T14:11:37;7.50;99.90
9828;DHT22;4953;48.952;9.442;2023-01-16T14:14:24;7.60;99.90
9828;DHT22;4953;48.952;9.442;2023-01-16T14:17:07;7.60;99.90
9828;DHT22;4953;48.952;9.442;2023-01-16T14:19:36;7.50;99.90
9828;DHT22;4953;48.952;9.442;2023-01-16T14:22:04;7.50;99.90
9828;DHT22;4953;48.952;9.442;2023-01-16T14:24:47;7.50;99.90
9828;DHT22;4953;48.952;9.442;2023-01-16T14:27:15;7.50;99.90
9828;DHT22;4953;48.952;9.442;2023-01-16T14:29:49;7.50;99.90
9828;DHT22;4953;48.952;9.442;2023-01-16T14:32:22;7.40;99.90
9828;DHT22;4953;48.952;9.442;2023-01-16T14:34:52;7.40;99.90
9828;DHT22;4953;48.952;9.442;2023-01-16T14:37:23;7.40;99.90
9828;DHT22;4953;48.952;9.442;2023-01-16T14:39:53;7.40;99.90
9828;DHT22;4953;48.952;9.442;2023-01-16T14:42:26;7.40;99.90
9828;DHT22;4953;48.952;9.442;2023-01-16T14:45:27;7.40;99.90
9828;DHT22;4953;48.952;9.442;2023-01-16T14:48:29;7.40;99.90
9828;DHT22;4953;48.952;9.442;2023-01-16T14:51:17;7.30;99.90
9828;DHT22;4953;48.952;9.442;2023-01-16T14:54:06;7.30;99.90
9828;DHT22;4953;48.952;9.442;2023-01-16T14:56:58;7.30;99.90
9828;DHT22;4953;48.952;9.442;2023-01-16T14:59:29;7.30;99.90
9828;DHT22;4953;48.952;9.442;2023-01-16T15:02:00;7.30;99.90
9828;DHT22;4953;48.952;9.442;2023-01-16T15:04:52;7.30;99.90
9828;DHT22;4953;48.952;9.442;2023-01-16T15:07:26;7.30;99.90
9828;DHT22;4953;48.952;9.442;2023-01-16T15:09:56;7.40;99.90
9828;DHT22;4953;48.952;9.442;2023-01-16T15:12:36;7.40;99.90
9828;DHT22;4953;48.952;9.442;2023-01-16T15:15:04;7.40;99.90
9828;DHT22;4953;48.952;9.442;2023-01-16T15:17:34;7.40;99.90
9828;DHT22;4953;48.952;9.442;2023-01-16T15:20:23;7.40;99.90
9828;DHT22;4953;48.952;9.442;2023-01-16T15:23:18;7.40;99.90
9828;DHT22;4953;48.952;9.442;2023-01-16T15:26:00;7.30;99.90
9828;DHT22;4953;48.952;9.442;2023-01-16T15:28:35;7.30;99.90
9828;DHT22;4953;48.952;9.442;2023-01-16T15:31:08;7.30;99.90
9828;DHT22;4953;48.952;9.442;2023-01-16T15:33:36;7.20;99.90
9828;DHT22;4953;48.952;9.442;2023-01-16T15:36:21;7.10;99.90
9828;DHT22;4953;48.952;9.442;2023-01-16T15:38:49;7.00;99.90
9828;DHT22;4953;48.952;9.442;2023-01-16T15:41:21;6.90;99.90
9828;DHT22;4953;48.952;9.442;2023-01-16T15:44:12;6.90;99.90
9828;DHT22;4953;48.952;9.442;2023-01-16T15:49:54;6.90;99.90
9828;DHT22;4953;48.952;9.442;2023-01-16T15:52:28;6.80;99.90
9828;DHT22;4953;48.952;9.442;2023-01-16T15:54:55;6.80;99.90
9828;DHT22;4953;48.952;9.442;2023-01-16T15:57:25;6.80;99.90
9828;DHT22;4953;48.952;9.442;2023-01-16T15:59:53;6.70;99.90
9828;DHT22;4953;48.952;9.442;2023-01-16T16:02:22;6.80;99.90
9828;DHT22;4953;48.952;9.442;2023-01-16T16:04:51;6.70;99.90
9828;DHT22;4953;48.952;9.442;2023-01-16T16:07:19;6.70;99.90
9828;DHT22;4953;48.952;9.442;2023-01-16T16:09:49;6.70;99.90
9828;DHT22;4953;48.952;9.442;2023-01-16T16:12:18;6.70;99.90
9828;DHT22;4953;48.952;9.442;2023-01-16T16:14:45;6.60;99.90
9828;DHT22;4953;48.952;9.442;2023-01-16T16:17:30;6.60;99.90
9828;DHT22;4953;48.952;9.442;2023-01-16T16:20:30;6.50;99.90
9828;DHT22;4953;48.952;9.442;2023-01-16T16:23:02;6.50;99.90
9828;DHT22;4953;48.952;9.442;2023-01-16T16:25:33;6.50;99.90
9828;DHT22;4953;48.952;9.442;2023-01-16T16:28:03;6.40;99.90
9828;DHT22;4953;48.952;9.442;2023-01-16T16:30:31;6.40;99.90
9828;DHT22;4953;48.952;9.442;2023-01-16T16:32:59;6.40;99.90
9828;DHT22;4953;48.952;9.442;2023-01-16T16:35:28;6.30;99.90
9828;DHT22;4953;48.952;9.442;2023-01-16T16:37:57;6.30;99.90
9828;DHT22;4953;48.952;9.442;2023-01-16T16:40:25;6.20;99.90
9828;DHT22;4953;48.952;9.442;2023-01-16T16:42:55;6.20;99.90
9828;DHT22;4953;48.952;9.442;2023-01-16T16:45:26;6.20;99.90
9828;DHT22;4953;48.952;9.442;2023-01-16T16:48:24;6.20;99.90
9828;DHT22;4953;48.952;9.442;2023-01-16T16:51:14;6.10;99.90
9828;DHT22;4953;48.952;9.442;2023-01-16T16:53:45;6.10;99.90
9828;DHT22;4953;48.952;9.442;2023-01-16T16:56:14;6.00;99.90
9828;DHT22;4953;48.952;9.442;2023-01-16T16:58:45;5.90;99.90
9828;DHT22;4953;48.952;9.442;2023-01-16T17:01:13;5.80;99.90
9828;DHT22;4953;48.952;9.442;2023-01-16T17:03:41;5.90;99.90
9828;DHT22;4953;48.952;9.442;2023-01-16T17:06:12;5.80;99.90
9828;DHT22;4953;48.952;9.442;2023-01-16T17:08:39;5.80;99.90
9828;DHT22;4953;48.952;9.442;2023-01-16T17:11:10;5.80;99.90
9828;DHT22;4953;48.952;9.442;2023-01-16T17:13:37;5.70;99.90
9828;DHT22;4953;48.952;9.442;2023-01-16T17:16:13;5.70;99.90
9828;DHT22;4953;48.952;9.442;2023-01-16T17:18:40;5.70;99.90
9828;DHT22;4953;48.952;9.442;2023-01-16T17:21:08;5.60;99.90
9828;DHT22;4953;48.952;9.442;2023-01-16T17:23:37;5.60;99.90
9828;DHT22;4953;48.952;9.442;2023-01-16T17:26:04;5.60;99.90
9828;DHT22;4953;48.952;9.442;2023-01-16T17:28:32;5.60;99.90
9828;DHT22;4953;48.952;9.442;2023-01-16T17:30:59;5.60;99.90
9828;DHT22;4953;48.952;9.442;2023-01-16T17:33:27;5.60;99.90
9828;DHT22;4953;48.952;9.442;2023-01-16T17:35:55;5.50;99.90
9828;DHT22;4953;48.952;9.442;2023-01-16T17:38:35;5.50;99.90
9828;DHT22;4953;48.952;9.442;2023-01-16T17:41:03;5.50;99.90
9828;DHT22;4953;48.952;9.442;2023-01-16T17:43:30;5.40;99.90
9828;DHT22;4953;48.952;9.442;2023-01-16T17:46:15;5.40;99.90
9828;DHT22;4953;48.952;9.442;2023-01-16T17:48:44;5.40;99.90
9828;DHT22;4953;48.952;9.442;2023-01-16T17:51:10;5.40;99.90
9828;DHT22;4953;48.952;9.442;2023-01-16T17:53:37;5.40;99.90
9828;DHT22;4953;48.952;9.442;2023-01-16T17:56:07;5.40;99.90
9828;DHT22;4953;48.952;9.442;2023-01-16T17:58:34;5.40;99.90
9828;DHT22;4953;48.952;9.442;2023-01-16T18:01:15;5.30;99.90
9828;DHT22;4953;48.952;9.442;2023-01-16T18:03:45;5.30;99.90
9828;DHT22;4953;48.952;9.442;2023-01-16T18:06:17;5.30;99.90
9828;DHT22;4953;48.952;9.442;2023-01-16T18:08:47;5.30;99.90
9828;DHT22;4953;48.952;9.442;2023-01-16T18:11:14;5.20;99.90
9828;DHT22;4953;48.952;9.442;2023-01-16T18:13:58;5.20;99.90
9828;DHT22;4953;48.952;9.442;2023-01-16T18:16:42;5.10;99.90
9828;DHT22;4953;48.952;9.442;2023-01-16T18:19:28;5.10;99.90
9828;DHT22;4953;48.952;9.442;2023-01-16T18:21:54;5.10;99.90
9828;DHT22;4953;48.952;9.442;2023-01-16T18:24:27;5.10;99.90
9828;DHT22;4953;48.952;9.442;2023-01-16T18:26:54;5.10;99.90
9828;DHT22;4953;48.952;9.442;2023-01-16T18:29:21;5.00;99.90
9828;DHT22;4953;48.952;9.442;2023-01-16T18:31:48;5.10;99.90
9828;DHT22;4953;48.952;9.442;2023-01-16T18:34:30;5.10;99.90
9828;DHT22;4953;48.952;9.442;2023-01-16T18:36:57;5.10;99.90
9828;DHT22;4953;48.952;9.442;2023-01-16T18:39:23;5.10;99.90
9828;DHT22;4953;48.952;9.442;2023-01-16T18:42:09;5.10;99.90
9828;DHT22;4953;48.952;9.442;2023-01-16T18:44:53;5.10;99.90
9828;DHT22;4953;48.952;9.442;2023-01-16T18:47:38;5.00;99.90
9828;DHT22;4953;48.952;9.442;2023-01-16T18:50:24;5.00;99.90
9828;DHT22;4953;48.952;9.442;2023-01-16T18:53:13;5.00;99.90
9828;DHT22;4953;48.952;9.442;2023-01-16T18:55:58;5.00;99.90
9828;DHT22;4953;48.952;9.442;2023-01-16T18:58:42;5.00;99.90
9828;DHT22;4953;48.952;9.442;2023-01-16T19:01:26;5.00;99.90
9828;DHT22;4953;48.952;9.442;2023-01-16T19:04:10;5.00;99.90
9828;DHT22;4953;48.952;9.442;2023-01-16T19:06:39;5.00;99.90
9828;DHT22;4953;48.952;9.442;2023-01-16T19:09:07;5.00;99.90
9828;DHT22;4953;48.952;9.442;2023-01-16T19:11:34;5.00;99.90
9828;DHT22;4953;48.952;9.442;2023-01-16T19:14:01;5.00;99.90
9828;DHT22;4953;48.952;9.442;2023-01-16T19:16:28;5.00;99.90
9828;DHT22;4953;48.952;9.442;2023-01-16T19:19:10;5.00;99.90
9828;DHT22;4953;48.952;9.442;2023-01-16T19:21:39;5.00;99.90
9828;DHT22;4953;48.952;9.442;2023-01-16T19:24:08;5.00;99.90
9828;DHT22;4953;48.952;9.442;2023-01-16T19:26:35;5.00;99.90
9828;DHT22;4953;48.952;9.442;2023-01-16T19:29:06;5.00;99.90
9828;DHT22;4953;48.952;9.442;2023-01-16T19:31:33;5.00;99.90
9828;DHT22;4953;48.952;9.442;2023-01-16T19:34:00;5.00;99.90
9828;DHT22;4953;48.952;9.442;2023-01-16T19:36:27;5.00;99.90
9828;DHT22;4953;48.952;9.442;2023-01-16T19:38:55;5.00;99.90
9828;DHT22;4953;48.952;9.442;2023-01-16T19:41:22;5.00;99.90
9828;DHT22;4953;48.952;9.442;2023-01-16T19:44:07;5.00;99.90
9828;DHT22;4953;48.952;9.442;2023-01-16T19:46:51;4.90;99.90
9828;DHT22;4953;48.952;9.442;2023-01-16T19:49:18;4.90;99.90
9828;DHT22;4953;48.952;9.442;2023-01-16T19:51:45;4.80;99.90
9828;DHT22;4953;48.952;9.442;2023-01-16T19:54:13;4.80;99.90
9828;DHT22;4953;48.952;9.442;2023-01-16T19:56:40;4.80;99.90
9828;DHT22;4953;48.952;9.442;2023-01-16T19:59:07;4.80;99.90
9828;DHT22;4953;48.952;9.442;2023-01-16T20:01:34;4.80;99.90
9828;DHT22;4953;48.952;9.442;2023-01-16T20:04:03;4.80;99.90
9828;DHT22;4953;48.952;9.442;2023-01-16T20:06:30;4.80;99.90
9828;DHT22;4953;48.952;9.442;2023-01-16T20:08:57;4.80;99.90
9828;DHT22;4953;48.952;9.442;2023-01-16T20:11:25;4.80;99.90
9828;DHT22;4953;48.952;9.442;2023-01-16T20:14:06;4.80;99.90
9828;DHT22;4953;48.952;9.442;2023-01-16T20:16:32;4.70;99.90
9828;DHT22;4953;48.952;9.442;2023-01-16T20:18:59;4.70;99.90
9828;DHT22;4953;48.952;9.442;2023-01-16T20:21:26;4.70;99.90
9828;DHT22;4953;48.952;9.442;2023-01-16T20:23:55;4.70;99.90
9828;DHT22;4953;48.952;9.442;2023-01-16T20:26:22;4.60;99.90
9828;DHT22;4953;48.952;9.442;2023-01-16T20:28:50;4.60;99.90
9828;DHT22;4953;48.952;9.442;2023-01-16T20:31:17;4.70;99.90
9828;DHT22;4953;48.952;9.442;2023-01-16T20:33:45;4.60;99.90
9828;DHT22;4953;48.952;9.442;2023-01-16T20:36:11;4.60;99.90
9828;DHT22;4953;48.952;9.442;2023-01-16T20:38:38;4.60;99.90
9828;DHT22;4953;48.952;9.442;2023-01-16T20:41:06;4.60;99.90
9828;DHT22;4953;48.952;9.442;2023-01-16T20:43:34;4.60;99.90
9828;DHT22;4953;48.952;9.442;2023-01-16T20:46:20;4.60;99.90
9828;DHT22;4953;48.952;9.442;2023-01-16T20:48:47;4.60;99.90
9828;DHT22;4953;48.952;9.442;2023-01-16T20:51:14;4.60;99.90
9828;DHT22;4953;48.952;9.442;2023-01-16T20:53:42;4.60;99.90
9828;DHT22;4953;48.952;9.442;2023-01-16T20:56:09;4.60;99.90
9828;DHT22;4953;48.952;9.442;2023-01-16T20:58:36;4.60;99.90
9828;DHT22;4953;48.952;9.442;2023-01-16T21:01:04;4.50;99.90
9828;DHT22;4953;48.952;9.442;2023-01-16T21:03:32;4.60;99.90
9828;DHT22;4953;48.952;9.442;2023-01-16T21:05:59;4.50;99.90
9828;DHT22;4953;48.952;9.442;2023-01-16T21:08:26;4.50;99.90
9828;DHT22;4953;48.952;9.442;2023-01-16T21:10:52;4.60;99.90
9828;DHT22;4953;48.952;9.442;2023-01-16T21:13:19;4.60;99.90
9828;DHT22;4953;48.952;9.442;2023-01-16T21:16:04;4.60;99.90
9828;DHT22;4953;48.952;9.442;2023-01-16T21:18:50;4.60;99.90
9828;DHT22;4953;48.952;9.442;2023-01-16T21:21:34;4.50;99.90
9828;DHT22;4953;48.952;9.442;2023-01-16T21:24:17;4.50;99.90
9828;DHT22;4953;48.952;9.442;2023-01-16T21:26:45;4.50;99.90
9828;DHT22;4953;48.952;9.442;2023-01-16T21:29:12;4.50;99.90
9828;DHT22;4953;48.952;9.442;2023-01-16T21:31:39;4.50;99.90
9828;DHT22;4953;48.952;9.442;2023-01-16T21:34:07;4.50;99.90
9828;DHT22;4953;48.952;9.442;2023-01-16T21:36:34;4.60;99.90
9828;DHT22;4953;48.952;9.442;2023-01-16T21:39:03;4.50;99.90
9828;DHT22;4953;48.952;9.442;2023-01-16T21:41:30;4.50;99.90
9828;DHT22;4953;48.952;9.442;2023-01-16T21:44:17;4.50;99.90
9828;DHT22;4953;48.952;9.442;2023-01-16T21:47:02;4.50;99.90
9828;DHT22;4953;48.952;9.442;2023-01-16T21:49:30;4.50;99.90
9828;DHT22;4953;48.952;9.442;2023-01-16T21:51:57;4.60;99.90
9828;DHT22;4953;48.952;9.442;2023-01-16T21:54:23;4.60;99.90
9828;DHT22;4953;48.952;9.442;2023-01-16T21:56:50;4.60;99.90
9828;DHT22;4953;48.952;9.442;2023-01-16T21:59:17;4.60;99.90